sensor_id;sensor_type;location;lat;lon;timestamp;P1;durP1;ratioP1;P2;durP2;ratioP2
74674;SDS011;63200;48.810;12.352;2023-03-23T00:00:57;7.93;;;4.80;;
74674;SDS011;63200;48.810;12.352;2023-03-23T00:03:23;6.47;;;4.82;;
74674;SDS011;63200;48.810;12.352;2023-03-23T00:05:51;7.63;;;4.88;;
74674;SDS011;63200;48.810;12.352;2023-03-23T00:08:20;8.35;;;4.93;;
74674;SDS011;63200;48.810;12.352;2023-03-23T00:10:49;9.18;;;4.65;;
74674;SDS011;63200;48.810;12.352;2023-03-23T00:13:17;6.78;;;4.35;;
74674;SDS011;63200;48.810;12.352;2023-03-23T00:15:45;6.97;;;5.20;;
74674;SDS011;63200;48.810;12.352;2023-03-23T00:18:13;6.20;;;4.57;;
74674;SDS011;63200;48.810;12.352;2023-03-23T00:20:48;7.78;;;4.38;;
74674;SDS011;63200;48.810;12.352;2023-03-23T00:23:25;8.38;;;4.32;;
74674;SDS011;63200;48.810;12.352;2023-03-23T00:25:52;7.43;;;4.88;;
74674;SDS011;63200;48.810;12.352;2023-03-23T00:28:22;7.22;;;4.57;;
74674;SDS011;63200;48.810;12.352;2023-03-23T00:30:53;5.88;;;4.38;;
74674;SDS011;63200;48.810;12.352;2023-03-23T00:33:21;6.38;;;4.75;;
74674;SDS011;63200;48.810;12.352;2023-03-23T00:35:48;5.68;;;4.63;;
74674;SDS011;63200;48.810;12.352;2023-03-23T00:38:17;5.10;;;4.30;;
74674;SDS011;63200;48.810;12.352;2023-03-23T00:40:43;5.68;;;3.83;;
74674;SDS011;63200;48.810;12.352;2023-03-23T00:43:08;6.43;;;3.55;;
74674;SDS011;63200;48.810;12.352;2023-03-23T00:45:38;6.60;;;3.40;;
74674;SDS011;63200;48.810;12.352;2023-03-23T00:48:03;5.20;;;3.83;;
74674;SDS011;63200;48.810;12.352;2023-03-23T00:50:30;4.82;;;4.32;;
74674;SDS011;63200;48.810;12.352;2023-03-23T00:52:56;5.78;;;4.18;;
74674;SDS011;63200;48.810;12.352;2023-03-23T00:55:21;6.45;;;4.28;;
74674;SDS011;63200;48.810;12.352;2023-03-23T00:57:47;7.05;;;4.20;;
74674;SDS011;63200;48.810;12.352;2023-03-23T01:00:15;4.78;;;3.78;;
74674;SDS011;63200;48.810;12.352;2023-03-23T01:02:41;5.60;;;4.00;;
74674;SDS011;63200;48.810;12.352;2023-03-23T01:05:09;6.82;;;4.13;;
74674;SDS011;63200;48.810;12.352;2023-03-23T01:07:35;5.68;;;4.25;;
74674;SDS011;63200;48.810;12.352;2023-03-23T01:10:01;6.60;;;4.13;;
74674;SDS011;63200;48.810;12.352;2023-03-23T01:12:27;5.57;;;4.13;;
74674;SDS011;63200;48.810;12.352;2023-03-23T01:14:52;9.25;;;4.13;;
74674;SDS011;63200;48.810;12.352;2023-03-23T01:17:18;5.45;;;4.07;;
74674;SDS011;63200;48.810;12.352;2023-03-23T01:19:43;8.88;;;3.90;;
74674;SDS011;63200;48.810;12.352;2023-03-23T01:22:09;8.07;;;4.05;;
74674;SDS011;63200;48.810;12.352;2023-03-23T01:24:34;8.43;;;4.97;;
74674;SDS011;63200;48.810;12.352;2023-03-23T01:27:00;5.97;;;4.97;;
74674;SDS011;63200;48.810;12.352;2023-03-23T01:29:31;5.82;;;4.35;;
74674;SDS011;63200;48.810;12.352;2023-03-23T01:31:57;5.63;;;4.28;;
74674;SDS011;63200;48.810;12.352;2023-03-23T01:34:23;7.35;;;4.05;;
74674;SDS011;63200;48.810;12.352;2023-03-23T01:36:48;5.55;;;3.90;;
74674;SDS011;63200;48.810;12.352;2023-03-23T01:39:13;6.68;;;3.75;;
74674;SDS011;63200;48.810;12.352;2023-03-23T01:41:38;9.95;;;3.97;;
74674;SDS011;63200;48.810;12.352;2023-03-23T01:45:11;6.70;;;4.20;;
74674;SDS011;63200;48.810;12.352;2023-03-23T01:46:55;3.97;;;3.60;;
74674;SDS011;63200;48.810;12.352;2023-03-23T01:49:21;7.60;;;3.70;;
74674;SDS011;63200;48.810;12.352;2023-03-23T01:51:53;4.50;;;3.53;;
74674;SDS011;63200;48.810;12.352;2023-03-23T01:54:22;10.15;;;4.38;;
74674;SDS011;63200;48.810;12.352;2023-03-23T01:56:59;3.80;;;3.50;;
74674;SDS011;63200;48.810;12.352;2023-03-23T01:59:28;4.15;;;3.17;;
74674;SDS011;63200;48.810;12.352;2023-03-23T02:01:56;6.78;;;5.10;;
74674;SDS011;63200;48.810;12.352;2023-03-23T02:04:22;5.40;;;4.05;;
74674;SDS011;63200;48.810;12.352;2023-03-23T02:06:50;4.40;;;3.58;;
74674;SDS011;63200;48.810;12.352;2023-03-23T02:09:17;4.35;;;3.92;;
74674;SDS011;63200;48.810;12.352;2023-03-23T02:11:44;5.90;;;3.67;;
74674;SDS011;63200;48.810;12.352;2023-03-23T02:14:10;3.90;;;3.60;;
74674;SDS011;63200;48.810;12.352;2023-03-23T02:30:29;6.32;;;4.15;;
74674;SDS011;63200;48.810;12.352;2023-03-23T02:35:47;5.18;;;3.70;;
74674;SDS011;63200;48.810;12.352;2023-03-23T02:38:18;5.38;;;3.35;;
74674;SDS011;63200;48.810;12.352;2023-03-23T02:40:51;4.30;;;3.90;;
74674;SDS011;63200;48.810;12.352;2023-03-23T02:43:21;7.32;;;4.15;;
74674;SDS011;63200;48.810;12.352;2023-03-23T02:45:48;4.68;;;4.18;;
74674;SDS011;63200;48.810;12.352;2023-03-23T02:48:16;5.00;;;3.67;;
74674;SDS011;63200;48.810;12.352;2023-03-23T02:50:45;4.95;;;3.65;;
74674;SDS011;63200;48.810;12.352;2023-03-23T02:53:15;6.93;;;4.55;;
74674;SDS011;63200;48.810;12.352;2023-03-23T02:55:46;4.35;;;3.67;;
74674;SDS011;63200;48.810;12.352;2023-03-23T02:58:13;4.78;;;3.97;;
74674;SDS011;63200;48.810;12.352;2023-03-23T03:00:39;4.72;;;3.92;;
74674;SDS011;63200;48.810;12.352;2023-03-23T03:03:06;5.43;;;4.25;;
74674;SDS011;63200;48.810;12.352;2023-03-23T03:05:38;4.07;;;3.65;;
74674;SDS011;63200;48.810;12.352;2023-03-23T03:11:11;3.97;;;3.60;;
74674;SDS011;63200;48.810;12.352;2023-03-23T03:16:22;5.03;;;4.20;;
74674;SDS011;63200;48.810;12.352;2023-03-23T03:21:32;6.10;;;4.57;;
74674;SDS011;63200;48.810;12.352;2023-03-23T03:24:01;5.88;;;4.10;;
74674;SDS011;63200;48.810;12.352;2023-03-23T03:26:29;4.68;;;4.28;;
74674;SDS011;63200;48.810;12.352;2023-03-23T03:28:57;7.13;;;4.32;;
74674;SDS011;63200;48.810;12.352;2023-03-23T03:31:30;6.57;;;4.00;;
74674;SDS011;63200;48.810;12.352;2023-03-23T03:33:58;5.65;;;4.13;;
74674;SDS011;63200;48.810;12.352;2023-03-23T03:36:27;4.75;;;4.28;;
74674;SDS011;63200;48.810;12.352;2023-03-23T03:39:00;4.38;;;3.90;;
74674;SDS011;63200;48.810;12.352;2023-03-23T03:41:32;5.78;;;3.90;;
74674;SDS011;63200;48.810;12.352;2023-03-23T03:43:59;5.38;;;4.05;;
74674;SDS011;63200;48.810;12.352;2023-03-23T03:46:24;5.28;;;4.57;;
74674;SDS011;63200;48.810;12.352;2023-03-23T03:48:52;4.18;;;3.72;;
74674;SDS011;63200;48.810;12.352;2023-03-23T03:51:17;6.43;;;4.45;;
74674;SDS011;63200;48.810;12.352;2023-03-23T03:53:43;4.50;;;4.10;;
74674;SDS011;63200;48.810;12.352;2023-03-23T03:56:08;7.68;;;4.28;;
74674;SDS011;63200;48.810;12.352;2023-03-23T03:58:33;6.18;;;4.60;;
74674;SDS011;63200;48.810;12.352;2023-03-23T04:01:01;5.28;;;3.95;;
74674;SDS011;63200;48.810;12.352;2023-03-23T04:03:28;5.22;;;3.90;;
74674;SDS011;63200;48.810;12.352;2023-03-23T04:05:53;4.70;;;4.22;;
74674;SDS011;63200;48.810;12.352;2023-03-23T04:08:20;6.93;;;4.07;;
74674;SDS011;63200;48.810;12.352;2023-03-23T04:10:49;9.15;;;4.63;;
74674;SDS011;63200;48.810;12.352;2023-03-23T04:13:15;8.55;;;4.47;;
74674;SDS011;63200;48.810;12.352;2023-03-23T04:15:41;4.75;;;4.28;;
74674;SDS011;63200;48.810;12.352;2023-03-23T04:18:06;8.00;;;4.45;;
74674;SDS011;63200;48.810;12.352;2023-03-23T04:20:32;5.30;;;4.10;;
74674;SDS011;63200;48.810;12.352;2023-03-23T04:23:00;5.28;;;4.60;;
74674;SDS011;63200;48.810;12.352;2023-03-23T04:25:26;8.15;;;4.78;;
74674;SDS011;63200;48.810;12.352;2023-03-23T04:27:52;9.48;;;4.63;;
74674;SDS011;63200;48.810;12.352;2023-03-23T04:30:22;12.52;;;5.28;;
74674;SDS011;63200;48.810;12.352;2023-03-23T04:32:50;7.82;;;4.72;;
74674;SDS011;63200;48.810;12.352;2023-03-23T04:35:17;7.18;;;4.70;;
74674;SDS011;63200;48.810;12.352;2023-03-23T04:37:44;7.55;;;5.05;;
74674;SDS011;63200;48.810;12.352;2023-03-23T04:40:10;5.70;;;5.10;;
74674;SDS011;63200;48.810;12.352;2023-03-23T04:42:39;8.63;;;4.85;;
74674;SDS011;63200;48.810;12.352;2023-03-23T04:45:07;6.30;;;4.47;;
74674;SDS011;63200;48.810;12.352;2023-03-23T04:47:35;7.20;;;4.68;;
74674;SDS011;63200;48.810;12.352;2023-03-23T04:50:09;5.50;;;4.93;;
74674;SDS011;63200;48.810;12.352;2023-03-23T04:52:37;6.95;;;4.45;;
74674;SDS011;63200;48.810;12.352;2023-03-23T04:55:04;7.07;;;4.68;;
74674;SDS011;63200;48.810;12.352;2023-03-23T04:57:30;6.90;;;4.53;;
74674;SDS011;63200;48.810;12.352;2023-03-23T04:59:56;5.30;;;4.22;;
74674;SDS011;63200;48.810;12.352;2023-03-23T05:02:22;5.03;;;4.00;;
74674;SDS011;63200;48.810;12.352;2023-03-23T05:04:47;6.55;;;4.35;;
74674;SDS011;63200;48.810;12.352;2023-03-23T05:07:14;7.43;;;4.93;;
74674;SDS011;63200;48.810;12.352;2023-03-23T05:09:40;6.43;;;4.53;;
74674;SDS011;63200;48.810;12.352;2023-03-23T05:12:07;8.60;;;4.18;;
74674;SDS011;63200;48.810;12.352;2023-03-23T05:14:34;5.20;;;4.57;;
74674;SDS011;63200;48.810;12.352;2023-03-23T05:17:00;5.07;;;4.13;;
74674;SDS011;63200;48.810;12.352;2023-03-23T05:19:26;8.52;;;4.43;;
74674;SDS011;63200;48.810;12.352;2023-03-23T05:21:53;10.10;;;5.32;;
74674;SDS011;63200;48.810;12.352;2023-03-23T05:24:19;8.05;;;4.55;;
74674;SDS011;63200;48.810;12.352;2023-03-23T05:26:44;7.22;;;4.78;;
74674;SDS011;63200;48.810;12.352;2023-03-23T05:29:13;7.68;;;4.93;;
74674;SDS011;63200;48.810;12.352;2023-03-23T05:31:38;5.55;;;4.25;;
74674;SDS011;63200;48.810;12.352;2023-03-23T05:34:04;8.00;;;4.45;;
74674;SDS011;63200;48.810;12.352;2023-03-23T05:36:30;5.35;;;4.40;;
74674;SDS011;63200;48.810;12.352;2023-03-23T05:38:55;5.28;;;4.25;;
74674;SDS011;63200;48.810;12.352;2023-03-23T05:41:21;5.88;;;4.35;;
74674;SDS011;63200;48.810;12.352;2023-03-23T05:43:48;5.70;;;4.72;;
74674;SDS011;63200;48.810;12.352;2023-03-23T05:46:13;7.80;;;4.68;;
74674;SDS011;63200;48.810;12.352;2023-03-23T05:48:39;8.95;;;4.82;;
74674;SDS011;63200;48.810;12.352;2023-03-23T05:51:05;5.07;;;4.40;;
74674;SDS011;63200;48.810;12.352;2023-03-23T05:53:30;6.65;;;5.03;;
74674;SDS011;63200;48.810;12.352;2023-03-23T05:55:59;6.90;;;4.38;;
74674;SDS011;63200;48.810;12.352;2023-03-23T05:58:26;5.03;;;4.50;;
74674;SDS011;63200;48.810;12.352;2023-03-23T06:00:52;13.88;;;5.70;;
74674;SDS011;63200;48.810;12.352;2023-03-23T06:03:17;8.82;;;5.32;;
74674;SDS011;63200;48.810;12.352;2023-03-23T06:05:43;7.47;;;5.20;;
74674;SDS011;63200;48.810;12.352;2023-03-23T06:08:11;7.28;;;5.30;;
74674;SDS011;63200;48.810;12.352;2023-03-23T06:10:37;5.85;;;5.03;;
74674;SDS011;63200;48.810;12.352;2023-03-23T06:13:03;6.35;;;5.75;;
74674;SDS011;63200;48.810;12.352;2023-03-23T06:15:30;7.53;;;5.72;;
74674;SDS011;63200;48.810;12.352;2023-03-23T06:18:00;7.57;;;5.30;;
74674;SDS011;63200;48.810;12.352;2023-03-23T06:20:26;16.10;;;7.68;;
74674;SDS011;63200;48.810;12.352;2023-03-23T06:22:52;11.10;;;6.93;;
74674;SDS011;63200;48.810;12.352;2023-03-23T06:25:17;14.85;;;7.88;;
74674;SDS011;63200;48.810;12.352;2023-03-23T06:27:44;18.58;;;7.32;;
74674;SDS011;63200;48.810;12.352;2023-03-23T06:30:10;15.57;;;7.10;;
74674;SDS011;63200;48.810;12.352;2023-03-23T06:32:36;15.07;;;8.40;;
74674;SDS011;63200;48.810;12.352;2023-03-23T06:35:03;16.60;;;7.97;;
74674;SDS011;63200;48.810;12.352;2023-03-23T06:37:29;13.90;;;8.32;;
74674;SDS011;63200;48.810;12.352;2023-03-23T06:39:55;19.45;;;8.15;;
74674;SDS011;63200;48.810;12.352;2023-03-23T06:42:21;15.57;;;6.60;;
74674;SDS011;63200;48.810;12.352;2023-03-23T06:44:49;16.05;;;7.45;;
74674;SDS011;63200;48.810;12.352;2023-03-23T06:47:15;12.02;;;7.05;;
74674;SDS011;63200;48.810;12.352;2023-03-23T06:49:41;11.45;;;7.05;;
74674;SDS011;63200;48.810;12.352;2023-03-23T06:52:06;8.73;;;6.38;;
74674;SDS011;63200;48.810;12.352;2023-03-23T06:54:31;12.18;;;7.22;;
74674;SDS011;63200;48.810;12.352;2023-03-23T06:56:57;12.73;;;6.97;;
74674;SDS011;63200;48.810;12.352;2023-03-23T06:59:22;7.22;;;5.45;;
74674;SDS011;63200;48.810;12.352;2023-03-23T07:01:47;11.88;;;5.68;;
74674;SDS011;63200;48.810;12.352;2023-03-23T07:04:13;13.95;;;6.40;;
74674;SDS011;63200;48.810;12.352;2023-03-23T07:06:39;11.55;;;7.03;;
74674;SDS011;63200;48.810;12.352;2023-03-23T07:09:04;12.65;;;7.40;;
74674;SDS011;63200;48.810;12.352;2023-03-23T07:11:29;12.15;;;5.68;;
74674;SDS011;63200;48.810;12.352;2023-03-23T07:13:55;9.90;;;5.80;;
74674;SDS011;63200;48.810;12.352;2023-03-23T07:16:21;8.95;;;6.10;;
74674;SDS011;63200;48.810;12.352;2023-03-23T07:18:46;9.95;;;5.97;;
74674;SDS011;63200;48.810;12.352;2023-03-23T07:21:12;6.15;;;5.43;;
74674;SDS011;63200;48.810;12.352;2023-03-23T07:23:37;13.20;;;5.78;;
74674;SDS011;63200;48.810;12.352;2023-03-23T07:26:02;9.73;;;5.00;;
74674;SDS011;63200;48.810;12.352;2023-03-23T07:28:28;9.65;;;5.75;;
74674;SDS011;63200;48.810;12.352;2023-03-23T07:30:54;10.85;;;5.80;;
74674;SDS011;63200;48.810;12.352;2023-03-23T07:33:20;7.22;;;5.60;;
74674;SDS011;63200;48.810;12.352;2023-03-23T07:35:45;9.90;;;5.55;;
74674;SDS011;63200;48.810;12.352;2023-03-23T07:38:10;22.83;;;9.50;;
74674;SDS011;63200;48.810;12.352;2023-03-23T07:40:36;21.08;;;8.68;;
74674;SDS011;63200;48.810;12.352;2023-03-23T07:43:02;31.67;;;12.23;;
74674;SDS011;63200;48.810;12.352;2023-03-23T07:45:29;22.92;;;10.90;;
74674;SDS011;63200;48.810;12.352;2023-03-23T07:47:55;11.15;;;7.40;;
74674;SDS011;63200;48.810;12.352;2023-03-23T07:50:21;30.17;;;22.23;;
74674;SDS011;63200;48.810;12.352;2023-03-23T07:52:49;22.35;;;16.58;;
74674;SDS011;63200;48.810;12.352;2023-03-23T07:55:15;14.70;;;10.52;;
74674;SDS011;63200;48.810;12.352;2023-03-23T07:57:44;10.75;;;6.63;;
74674;SDS011;63200;48.810;12.352;2023-03-23T08:00:12;7.13;;;5.50;;
74674;SDS011;63200;48.810;12.352;2023-03-23T08:02:44;10.57;;;6.70;;
74674;SDS011;63200;48.810;12.352;2023-03-23T08:05:13;9.90;;;6.90;;
74674;SDS011;63200;48.810;12.352;2023-03-23T08:07:40;9.50;;;6.50;;
74674;SDS011;63200;48.810;12.352;2023-03-23T08:10:06;6.93;;;5.07;;
74674;SDS011;63200;48.810;12.352;2023-03-23T08:12:35;8.63;;;5.68;;
74674;SDS011;63200;48.810;12.352;2023-03-23T08:15:01;11.82;;;6.97;;
74674;SDS011;63200;48.810;12.352;2023-03-23T08:17:27;10.23;;;5.93;;
74674;SDS011;63200;48.810;12.352;2023-03-23T08:19:53;10.98;;;5.32;;
74674;SDS011;63200;48.810;12.352;2023-03-23T08:22:18;8.32;;;5.28;;
74674;SDS011;63200;48.810;12.352;2023-03-23T08:24:44;9.32;;;5.65;;
74674;SDS011;63200;48.810;12.352;2023-03-23T08:27:09;11.07;;;6.88;;
74674;SDS011;63200;48.810;12.352;2023-03-23T08:29:34;10.68;;;7.57;;
74674;SDS011;63200;48.810;12.352;2023-03-23T08:32:00;11.98;;;6.07;;
74674;SDS011;63200;48.810;12.352;2023-03-23T08:34:27;9.80;;;5.90;;
74674;SDS011;63200;48.810;12.352;2023-03-23T08:36:53;11.68;;;5.93;;
74674;SDS011;63200;48.810;12.352;2023-03-23T08:39:20;9.13;;;6.20;;
74674;SDS011;63200;48.810;12.352;2023-03-23T08:41:47;9.38;;;6.25;;
74674;SDS011;63200;48.810;12.352;2023-03-23T08:44:13;13.57;;;6.60;;
74674;SDS011;63200;48.810;12.352;2023-03-23T08:46:39;10.65;;;6.13;;
74674;SDS011;63200;48.810;12.352;2023-03-23T08:49:04;41.25;;;16.65;;
74674;SDS011;63200;48.810;12.352;2023-03-23T08:51:30;15.77;;;8.35;;
74674;SDS011;63200;48.810;12.352;2023-03-23T08:53:56;12.98;;;7.63;;
74674;SDS011;63200;48.810;12.352;2023-03-23T08:56:21;25.20;;;10.82;;
74674;SDS011;63200;48.810;12.352;2023-03-23T08:58:47;17.25;;;8.35;;
74674;SDS011;63200;48.810;12.352;2023-03-23T09:01:13;13.77;;;7.15;;
74674;SDS011;63200;48.810;12.352;2023-03-23T09:03:39;11.77;;;7.88;;
74674;SDS011;63200;48.810;12.352;2023-03-23T09:06:06;13.43;;;9.07;;
74674;SDS011;63200;48.810;12.352;2023-03-23T09:08:33;12.02;;;7.60;;
74674;SDS011;63200;48.810;12.352;2023-03-23T09:10:59;14.38;;;7.90;;
74674;SDS011;63200;48.810;12.352;2023-03-23T09:13:24;15.02;;;8.88;;
74674;SDS011;63200;48.810;12.352;2023-03-23T09:15:50;9.15;;;6.60;;
74674;SDS011;63200;48.810;12.352;2023-03-23T09:18:17;11.88;;;6.53;;
74674;SDS011;63200;48.810;12.352;2023-03-23T09:20:43;20.98;;;9.75;;
74674;SDS011;63200;48.810;12.352;2023-03-23T09:23:09;11.27;;;7.50;;
74674;SDS011;63200;48.810;12.352;2023-03-23T09:25:34;11.55;;;8.50;;
74674;SDS011;63200;48.810;12.352;2023-03-23T09:28:00;15.57;;;6.18;;
74674;SDS011;63200;48.810;12.352;2023-03-23T09:30:30;6.28;;;4.70;;
74674;SDS011;63200;48.810;12.352;2023-03-23T09:32:58;8.20;;;4.70;;
74674;SDS011;63200;48.810;12.352;2023-03-23T09:35:25;9.35;;;5.90;;
74674;SDS011;63200;48.810;12.352;2023-03-23T09:37:53;6.70;;;4.53;;
74674;SDS011;63200;48.810;12.352;2023-03-23T09:40:20;7.47;;;4.85;;
74674;SDS011;63200;48.810;12.352;2023-03-23T09:45:34;11.40;;;7.47;;
74674;SDS011;63200;48.810;12.352;2023-03-23T09:51:00;8.75;;;6.00;;
74674;SDS011;63200;48.810;12.352;2023-03-23T09:53:41;7.80;;;5.50;;
74674;SDS011;63200;48.810;12.352;2023-03-23T09:56:11;9.45;;;4.43;;
74674;SDS011;63200;48.810;12.352;2023-03-23T10:02:01;7.57;;;4.18;;
74674;SDS011;63200;48.810;12.352;2023-03-23T10:04:37;6.10;;;3.75;;
74674;SDS011;63200;48.810;12.352;2023-03-23T10:07:14;3.78;;;3.47;;
74674;SDS011;63200;48.810;12.352;2023-03-23T10:09:45;4.88;;;3.70;;
74674;SDS011;63200;48.810;12.352;2023-03-23T10:17:42;3.25;;;2.95;;
74674;SDS011;63200;48.810;12.352;2023-03-23T10:22:41;3.55;;;3.20;;
74674;SDS011;63200;48.810;12.352;2023-03-23T10:25:15;4.10;;;2.70;;
74674;SDS011;63200;48.810;12.352;2023-03-23T10:27:50;2.50;;;2.30;;
74674;SDS011;63200;48.810;12.352;2023-03-23T10:30:30;2.70;;;2.50;;
74674;SDS011;63200;48.810;12.352;2023-03-23T10:35:47;4.07;;;2.40;;
74674;SDS011;63200;48.810;12.352;2023-03-23T10:38:23;3.80;;;2.78;;
74674;SDS011;63200;48.810;12.352;2023-03-23T10:40:59;2.58;;;2.38;;
74674;SDS011;63200;48.810;12.352;2023-03-23T10:43:30;5.07;;;1.95;;
74674;SDS011;63200;48.810;12.352;2023-03-23T10:45:57;3.13;;;2.00;;
74674;SDS011;63200;48.810;12.352;2023-03-23T10:48:30;1.83;;;1.73;;
74674;SDS011;63200;48.810;12.352;2023-03-23T10:51:00;3.47;;;2.20;;
74674;SDS011;63200;48.810;12.352;2023-03-23T10:53:34;2.38;;;1.90;;
74674;SDS011;63200;48.810;12.352;2023-03-23T10:56:03;2.28;;;2.17;;
74674;SDS011;63200;48.810;12.352;2023-03-23T10:58:34;3.50;;;2.10;;
74674;SDS011;63200;48.810;12.352;2023-03-23T11:01:01;3.95;;;2.13;;
74674;SDS011;63200;48.810;12.352;2023-03-23T11:03:39;2.25;;;2.13;;
74674;SDS011;63200;48.810;12.352;2023-03-23T11:06:08;1.92;;;1.83;;
74674;SDS011;63200;48.810;12.352;2023-03-23T11:08:37;2.92;;;2.20;;
74674;SDS011;63200;48.810;12.352;2023-03-23T11:11:21;4.00;;;2.20;;
74674;SDS011;63200;48.810;12.352;2023-03-23T11:13:49;2.00;;;1.90;;
74674;SDS011;63200;48.810;12.352;2023-03-23T11:16:23;3.50;;;2.00;;
74674;SDS011;63200;48.810;12.352;2023-03-23T11:18:50;3.50;;;2.33;;
74674;SDS011;63200;48.810;12.352;2023-03-23T11:21:17;2.30;;;2.08;;
74674;SDS011;63200;48.810;12.352;2023-03-23T11:23:47;2.40;;;2.13;;
74674;SDS011;63200;48.810;12.352;2023-03-23T11:26:22;3.35;;;2.80;;
74674;SDS011;63200;48.810;12.352;2023-03-23T11:31:23;6.40;;;3.40;;
74674;SDS011;63200;48.810;12.352;2023-03-23T11:33:57;10.38;;;4.57;;
74674;SDS011;63200;48.810;12.352;2023-03-23T11:36:29;5.43;;;2.95;;
74674;SDS011;63200;48.810;12.352;2023-03-23T11:39:29;4.43;;;3.30;;
74674;SDS011;63200;48.810;12.352;2023-03-23T11:42:18;3.40;;;2.75;;
74674;SDS011;63200;48.810;12.352;2023-03-23T11:44:46;2.80;;;2.45;;
74674;SDS011;63200;48.810;12.352;2023-03-23T11:47:17;2.30;;;2.10;;
74674;SDS011;63200;48.810;12.352;2023-03-23T11:55:23;1.90;;;1.80;;
74674;SDS011;63200;48.810;12.352;2023-03-23T11:58:00;1.95;;;1.85;;
74674;SDS011;63200;48.810;12.352;2023-03-23T12:00:27;1.80;;;1.70;;
74674;SDS011;63200;48.810;12.352;2023-03-23T12:02:59;1.80;;;1.52;;
74674;SDS011;63200;48.810;12.352;2023-03-23T12:05:50;2.55;;;1.67;;
74674;SDS011;63200;48.810;12.352;2023-03-23T12:11:14;3.38;;;1.52;;
74674;SDS011;63200;48.810;12.352;2023-03-23T12:19:12;1.30;;;0.93;;
74674;SDS011;63200;48.810;12.352;2023-03-23T12:21:51;0.88;;;0.88;;
74674;SDS011;63200;48.810;12.352;2023-03-23T12:27:27;2.53;;;1.02;;
74674;SDS011;63200;48.810;12.352;2023-03-23T12:30:21;1.40;;;1.30;;
74674;SDS011;63200;48.810;12.352;2023-03-23T12:35:40;1.77;;;1.20;;
74674;SDS011;63200;48.810;12.352;2023-03-23T12:41:01;1.33;;;1.33;;
74674;SDS011;63200;48.810;12.352;2023-03-23T12:43:51;1.27;;;1.27;;
74674;SDS011;63200;48.810;12.352;2023-03-23T12:49:44;1.85;;;0.93;;
74674;SDS011;63200;48.810;12.352;2023-03-23T12:54:47;1.55;;;1.10;;
74674;SDS011;63200;48.810;12.352;2023-03-23T13:02:43;1.10;;;1.10;;
74674;SDS011;63200;48.810;12.352;2023-03-23T13:10:32;1.33;;;1.20;;
74674;SDS011;63200;48.810;12.352;2023-03-23T13:13:02;2.22;;;0.98;;
74674;SDS011;63200;48.810;12.352;2023-03-23T13:18:08;1.08;;;0.90;;
74674;SDS011;63200;48.810;12.352;2023-03-23T13:20:48;1.40;;;1.30;;
74674;SDS011;63200;48.810;12.352;2023-03-23T13:23:24;2.30;;;1.33;;
74674;SDS011;63200;48.810;12.352;2023-03-23T13:28:22;3.80;;;1.23;;
74674;SDS011;63200;48.810;12.352;2023-03-23T13:33:19;1.73;;;1.30;;
74674;SDS011;63200;48.810;12.352;2023-03-23T13:35:46;1.73;;;1.50;;
74674;SDS011;63200;48.810;12.352;2023-03-23T13:38:19;1.67;;;1.27;;
74674;SDS011;63200;48.810;12.352;2023-03-23T13:40:49;2.45;;;1.45;;
74674;SDS011;63200;48.810;12.352;2023-03-23T13:43:24;2.47;;;1.40;;
74674;SDS011;63200;48.810;12.352;2023-03-23T13:45:52;2.80;;;1.30;;
74674;SDS011;63200;48.810;12.352;2023-03-23T13:48:20;2.35;;;1.52;;
74674;SDS011;63200;48.810;12.352;2023-03-23T13:53:21;1.00;;;1.00;;
74674;SDS011;63200;48.810;12.352;2023-03-23T13:56:16;2.25;;;1.30;;
74674;SDS011;63200;48.810;12.352;2023-03-23T13:58:47;1.85;;;1.20;;
74674;SDS011;63200;48.810;12.352;2023-03-23T14:01:19;1.40;;;1.40;;
74674;SDS011;63200;48.810;12.352;2023-03-23T14:03:58;5.18;;;1.60;;
74674;SDS011;63200;48.810;12.352;2023-03-23T14:06:25;2.60;;;1.65;;
74674;SDS011;63200;48.810;12.352;2023-03-23T14:09:02;1.58;;;1.30;;
74674;SDS011;63200;48.810;12.352;2023-03-23T14:11:31;1.70;;;1.33;;
74674;SDS011;63200;48.810;12.352;2023-03-23T14:16:39;1.50;;;1.40;;
74674;SDS011;63200;48.810;12.352;2023-03-23T14:19:14;1.55;;;1.48;;
74674;SDS011;63200;48.810;12.352;2023-03-23T14:21:48;1.60;;;1.50;;
74674;SDS011;63200;48.810;12.352;2023-03-23T14:24:16;1.55;;;1.38;;
74674;SDS011;63200;48.810;12.352;2023-03-23T14:26:51;1.88;;;1.60;;
74674;SDS011;63200;48.810;12.352;2023-03-23T14:29:19;2.30;;;1.40;;
74674;SDS011;63200;48.810;12.352;2023-03-23T14:31:48;1.48;;;1.40;;
74674;SDS011;63200;48.810;12.352;2023-03-23T14:34:21;1.73;;;1.45;;
74674;SDS011;63200;48.810;12.352;2023-03-23T14:36:49;1.35;;;1.35;;
74674;SDS011;63200;48.810;12.352;2023-03-23T14:41:51;3.00;;;1.75;;
74674;SDS011;63200;48.810;12.352;2023-03-23T14:44:29;1.60;;;1.58;;
74674;SDS011;63200;48.810;12.352;2023-03-23T14:46:56;1.65;;;1.55;;
74674;SDS011;63200;48.810;12.352;2023-03-23T14:49:29;1.52;;;1.50;;
74674;SDS011;63200;48.810;12.352;2023-03-23T14:52:01;2.65;;;1.35;;
74674;SDS011;63200;48.810;12.352;2023-03-23T14:54:29;1.52;;;1.48;;
74674;SDS011;63200;48.810;12.352;2023-03-23T14:57:02;1.58;;;1.48;;
74674;SDS011;63200;48.810;12.352;2023-03-23T14:59:35;1.65;;;1.55;;
74674;SDS011;63200;48.810;12.352;2023-03-23T15:02:00;1.30;;;1.30;;
74674;SDS011;63200;48.810;12.352;2023-03-23T15:04:26;1.65;;;1.55;;
74674;SDS011;63200;48.810;12.352;2023-03-23T15:06:54;2.80;;;1.27;;
74674;SDS011;63200;48.810;12.352;2023-03-23T15:09:24;1.40;;;1.30;;
74674;SDS011;63200;48.810;12.352;2023-03-23T15:11:54;3.22;;;1.83;;
74674;SDS011;63200;48.810;12.352;2023-03-23T15:14:23;1.65;;;1.60;;
74674;SDS011;63200;48.810;12.352;2023-03-23T15:16:53;1.42;;;1.33;;
74674;SDS011;63200;48.810;12.352;2023-03-23T15:19:23;1.60;;;1.50;;
74674;SDS011;63200;48.810;12.352;2023-03-23T15:21:55;4.78;;;1.50;;
74674;SDS011;63200;48.810;12.352;2023-03-23T15:24:36;4.72;;;1.80;;
74674;SDS011;63200;48.810;12.352;2023-03-23T15:27:09;1.67;;;1.60;;
74674;SDS011;63200;48.810;12.352;2023-03-23T15:32:41;1.77;;;1.70;;
74674;SDS011;63200;48.810;12.352;2023-03-23T15:35:17;2.65;;;2.10;;
74674;SDS011;63200;48.810;12.352;2023-03-23T15:37:46;1.73;;;1.63;;
74674;SDS011;63200;48.810;12.352;2023-03-23T15:40:17;1.92;;;1.70;;
74674;SDS011;63200;48.810;12.352;2023-03-23T15:42:45;3.28;;;1.60;;
74674;SDS011;63200;48.810;12.352;2023-03-23T15:50:17;1.63;;;1.63;;
74674;SDS011;63200;48.810;12.352;2023-03-23T15:52:57;3.55;;;1.60;;
74674;SDS011;63200;48.810;12.352;2023-03-23T15:57:51;1.90;;;1.67;;
74674;SDS011;63200;48.810;12.352;2023-03-23T16:00:19;1.88;;;1.60;;
74674;SDS011;63200;48.810;12.352;2023-03-23T16:02:46;1.80;;;1.70;;
74674;SDS011;63200;48.810;12.352;2023-03-23T16:05:14;1.98;;;1.88;;
74674;SDS011;63200;48.810;12.352;2023-03-23T16:07:40;4.30;;;1.75;;
74674;SDS011;63200;48.810;12.352;2023-03-23T16:10:06;1.83;;;1.73;;
74674;SDS011;63200;48.810;12.352;2023-03-23T16:12:38;3.00;;;1.58;;
74674;SDS011;63200;48.810;12.352;2023-03-23T16:15:03;4.80;;;1.77;;
74674;SDS011;63200;48.810;12.352;2023-03-23T16:17:30;1.77;;;1.67;;
74674;SDS011;63200;48.810;12.352;2023-03-23T16:19:57;1.80;;;1.70;;
74674;SDS011;63200;48.810;12.352;2023-03-23T16:22:22;1.60;;;1.60;;
74674;SDS011;63200;48.810;12.352;2023-03-23T16:24:47;1.83;;;1.73;;
74674;SDS011;63200;48.810;12.352;2023-03-23T16:27:13;1.80;;;1.70;;
74674;SDS011;63200;48.810;12.352;2023-03-23T16:29:38;2.33;;;2.17;;
74674;SDS011;63200;48.810;12.352;2023-03-23T16:32:03;3.15;;;1.80;;